Pawnee, Texas
Current Conditions -  °F | °C
As of 6:55 PM on Saturday 22 Nov 2014 (Local Time) from KBEA Reporting Station
Scattered Clouds Scattered Clouds  
Wind Chill: 71°   Ceiling: Unl
Heat Index: 71°   Visibility: 10mi
Dew Point: 70°   Wind: 8mph
Humidity: 95%   Direction: 190°S
Pressure: 29.81"   Gusts: NA
Location:  28.65°N, 98°W
Report Text: KBEA 230055Z AUTO 19007KT 10SM SCT110 22/21 A2981 RMK AO2 LTG DSNT E AND SW T02180210
Loading
Personal Weather Stations






























Interactive Weather Map New forecast layout! Learn more

10-Day Weather Forecast

Advertisements
Track Severe Weather on mobile